createdAt,value
2023-03-10T00:00:49.077Z,2.17
2023-03-10T00:03:28.814Z,3.30
2023-03-10T00:06:06.643Z,2.92
2023-03-10T00:08:35.215Z,1.55
2023-03-10T00:11:06.031Z,4.43
2023-03-10T00:13:41.900Z,3.38
2023-03-10T00:16:25.007Z,3.30
2023-03-10T00:18:59.427Z,3.08
2023-03-10T00:21:42.203Z,1.70
2023-03-10T00:24:12.976Z,3.05
2023-03-10T00:26:49.860Z,1.95
2023-03-10T00:29:19.877Z,2.88
2023-03-10T00:31:52.459Z,1.73
2023-03-10T00:34:20.224Z,4.22
2023-03-10T00:36:54.640Z,1.38
2023-03-10T00:39:38.071Z,1.80
2023-03-10T00:42:08.414Z,3.58
2023-03-10T00:44:42.101Z,1.25
2023-03-10T00:47:12.134Z,3.17
2023-03-10T00:49:41.068Z,2.58
2023-03-10T00:52:11.906Z,2.72
2023-03-10T00:54:44.190Z,3.53
2023-03-10T00:57:18.927Z,2.53
2023-03-10T00:59:51.030Z,2.20
2023-03-10T01:02:48.272Z,1.00
2023-03-10T01:05:21.562Z,1.00
2023-03-10T01:07:54.547Z,2.42
2023-03-10T01:10:25.177Z,3.50
2023-03-10T01:12:52.946Z,1.45
2023-03-10T01:15:26.233Z,0.60
2023-03-10T01:17:56.861Z,1.05
2023-03-10T01:20:36.607Z,0.68
2023-03-10T01:23:20.148Z,0.45
2023-03-10T01:26:01.025Z,1.75
2023-03-10T01:28:35.062Z,1.17
2023-03-10T01:31:08.126Z,1.83
2023-03-10T01:33:50.014Z,1.00
2023-03-10T01:36:26.488Z,3.05
2023-03-10T01:38:58.166Z,2.60
2023-03-10T01:41:31.842Z,1.83
2023-03-10T01:44:05.848Z,0.90
2023-03-10T01:46:54.544Z,2.45
2023-03-10T01:49:41.730Z,2.97
2023-03-10T01:52:17.894Z,0.80
2023-03-10T01:54:56.408Z,1.05
2023-03-10T01:57:43.484Z,2.72
2023-03-10T02:00:15.158Z,2.85
2023-03-10T02:03:21.167Z,2.80
2023-03-10T02:05:56.382Z,2.45
2023-03-10T02:08:44.633Z,1.67
2023-03-10T02:11:42.588Z,1.50
2023-03-10T02:14:18.658Z,3.65
2023-03-10T02:16:54.297Z,2.10
2023-03-10T02:19:44.396Z,1.88
2023-03-10T02:22:18.501Z,2.85
2023-03-10T02:25:21.069Z,2.90
2023-03-10T02:27:51.498Z,2.33
2023-03-10T02:30:39.333Z,1.48
2023-03-10T02:33:25.028Z,2.67
2023-03-10T02:36:05.472Z,1.00
2023-03-10T02:38:42.767Z,2.25
2023-03-10T02:41:22.614Z,1.73
2023-03-10T02:44:00.225Z,3.05
2023-03-10T02:46:34.870Z,1.00
2023-03-10T02:49:09.047Z,1.27
2023-03-10T02:51:47.707Z,2.38
2023-03-10T02:54:20.457Z,2.03
2023-03-10T02:56:57.763Z,2.83
2023-03-10T02:59:28.068Z,2.63
2023-03-10T03:02:09.851Z,3.60
2023-03-10T03:04:40.282Z,1.75
2023-03-10T03:07:09.885Z,2.65
2023-03-10T03:09:42.365Z,2.55
2023-03-10T03:12:18.123Z,2.92
2023-03-10T03:14:56.851Z,4.95
2023-03-10T03:17:31.255Z,2.00
2023-03-10T03:20:13.657Z,1.33
2023-03-10T03:22:58.114Z,2.80
2023-03-10T03:25:44.421Z,1.10
2023-03-10T03:28:18.843Z,4.88
2023-03-10T03:30:54.173Z,3.72
2023-03-10T03:33:23.062Z,1.05
2023-03-10T03:35:50.669Z,1.70
2023-03-10T03:38:28.632Z,16.77
2023-03-10T03:41:02.432Z,2.40
2023-03-10T03:43:41.154Z,1.65
2023-03-10T03:46:12.457Z,1.33
2023-03-10T03:48:43.435Z,1.35
2023-03-10T03:51:16.828Z,1.40
2023-03-10T03:53:44.898Z,3.53
2023-03-10T03:56:16.460Z,0.77
2023-03-10T03:59:03.062Z,1.45
2023-03-10T04:01:35.547Z,2.55
2023-03-10T04:04:09.346Z,2.00
2023-03-10T04:06:42.036Z,2.33
2023-03-10T04:09:14.089Z,0.70
2023-03-10T04:11:59.260Z,2.05
2023-03-10T04:14:41.549Z,3.28
2023-03-10T04:17:14.961Z,1.52
2023-03-10T04:19:51.294Z,0.75
2023-03-10T04:22:32.503Z,1.88
2023-03-10T04:25:02.523Z,1.48
2023-03-10T04:27:33.949Z,1.17
2023-03-10T04:30:12.185Z,3.22
2023-03-10T04:32:50.045Z,4.75
2023-03-10T04:35:22.661Z,1.65
2023-03-10T04:37:55.957Z,2.80
2023-03-10T04:40:29.868Z,2.83
2023-03-10T04:43:07.051Z,2.20
2023-03-10T04:45:41.058Z,2.83
2023-03-10T04:48:14.052Z,2.17
2023-03-10T04:50:44.680Z,0.75
2023-03-10T04:55:51.237Z,1.05
2023-03-10T04:58:22.001Z,1.75
2023-03-10T05:01:02.175Z,1.23
2023-03-10T05:03:39.153Z,2.23
2023-03-10T05:06:16.322Z,1.00
2023-03-10T05:08:58.320Z,2.83
2023-03-10T05:11:30.995Z,1.15
2023-03-10T05:14:08.180Z,0.95
2023-03-10T05:16:48.549Z,2.50
2023-03-10T05:19:25.214Z,1.23
2023-03-10T05:21:59.834Z,2.00
2023-03-10T05:24:33.032Z,0.50
2023-03-10T05:27:03.043Z,4.07
2023-03-10T05:29:41.452Z,1.30
2023-03-10T05:32:15.980Z,0.70
2023-03-10T05:34:55.112Z,0.47
2023-03-10T05:37:29.123Z,0.98
2023-03-10T05:40:12.144Z,1.20
2023-03-10T05:42:42.789Z,1.50
2023-03-10T05:45:17.198Z,0.85
2023-03-10T05:47:48.548Z,0.30
2023-03-10T05:50:24.709Z,1.70
2023-03-10T05:52:54.730Z,1.27
2023-03-10T05:55:32.733Z,1.17
2023-03-10T05:58:07.866Z,0.43
2023-03-10T06:00:35.632Z,2.92
2023-03-10T06:03:09.561Z,0.32
2023-03-10T06:05:40.164Z,1.85
2023-03-10T06:08:08.232Z,0.95
2023-03-10T06:10:39.285Z,0.68
2023-03-10T06:13:11.860Z,1.45
2023-03-10T06:15:42.390Z,2.80
2023-03-10T06:18:17.810Z,2.08
2023-03-10T06:20:49.283Z,3.20
2023-03-10T06:23:18.367Z,0.77
2023-03-10T06:26:02.626Z,3.95
2023-03-10T06:28:39.726Z,1.15
2023-03-10T06:31:22.076Z,4.83
2023-03-10T06:33:49.932Z,4.55
2023-03-10T06:36:48.992Z,0.90
2023-03-10T06:39:26.595Z,2.75
2023-03-10T06:41:55.475Z,1.23
2023-03-10T06:44:29.069Z,2.97
2023-03-10T06:46:59.195Z,1.58
2023-03-10T06:52:15.509Z,0.45
2023-03-10T06:54:45.898Z,3.13
2023-03-10T07:00:45.110Z,1.70
2023-03-10T07:03:22.813Z,2.60
2023-03-10T07:06:03.922Z,0.40
2023-03-10T07:08:41.077Z,0.70
2023-03-10T07:11:14.575Z,1.75
2023-03-10T07:13:47.862Z,1.10
2023-03-10T07:16:26.055Z,0.40
2023-03-10T07:18:56.742Z,1.85
2023-03-10T07:21:28.575Z,1.00
2023-03-10T07:24:10.648Z,3.90
2023-03-10T07:26:44.492Z,3.83
2023-03-10T07:29:28.995Z,0.98
2023-03-10T07:32:11.856Z,1.95
2023-03-10T07:38:31.880Z,1.52
2023-03-10T07:50:04.278Z,5.57
2023-03-10T07:52:40.003Z,3.78
2023-03-10T07:55:14.766Z,2.97
2023-03-10T07:57:46.395Z,8.48
2023-03-10T08:00:24.892Z,2.30
2023-03-10T08:03:01.835Z,6.90
2023-03-10T08:05:41.944Z,2.90
2023-03-10T08:08:19.963Z,3.53
2023-03-10T08:10:51.589Z,4.30
2023-03-10T08:13:24.806Z,6.30
2023-03-10T08:15:53.439Z,1.80
2023-03-10T08:18:26.176Z,2.67
2023-03-10T08:23:30.396Z,3.75
2023-03-10T08:26:05.065Z,6.05
2023-03-10T08:28:51.326Z,4.45
2023-03-10T08:31:22.743Z,7.68
2023-03-10T08:33:59.106Z,8.90
2023-03-10T08:36:31.588Z,5.65
2023-03-10T08:39:11.854Z,6.32
2023-03-10T08:41:51.381Z,7.93
2023-03-10T08:44:26.487Z,7.80
2023-03-10T08:46:56.745Z,4.97
2023-03-10T08:49:25.387Z,8.05
2023-03-10T08:51:58.875Z,4.70
2023-03-10T08:54:36.280Z,9.75
2023-03-10T08:57:04.989Z,6.40
2023-03-10T08:59:34.329Z,5.03
2023-03-10T09:02:34.982Z,8.10
2023-03-10T09:05:04.985Z,6.82
2023-03-10T09:07:45.531Z,7.10
2023-03-10T09:10:17.458Z,11.85
2023-03-10T09:12:46.506Z,6.23
2023-03-10T09:15:15.926Z,9.02
2023-03-10T09:17:52.035Z,4.35
2023-03-10T09:20:27.635Z,7.50
2023-03-10T09:23:01.569Z,7.00
2023-03-10T09:25:32.910Z,4.82
2023-03-10T09:28:04.433Z,5.95
2023-03-10T09:30:38.044Z,3.03
2023-03-10T09:33:17.801Z,3.42
2023-03-10T09:38:46.192Z,8.00
2023-03-10T09:41:38.085Z,2.00
2023-03-10T09:44:35.204Z,3.85
2023-03-10T09:47:46.821Z,3.90
2023-03-10T09:50:38.613Z,5.30
2023-03-10T09:53:30.042Z,4.55
2023-03-10T09:55:58.196Z,3.33
2023-03-10T09:58:58.240Z,2.35
2023-03-10T10:01:34.397Z,3.45
2023-03-10T10:04:34.324Z,3.15
2023-03-10T10:07:17.730Z,3.20
2023-03-10T10:10:00.665Z,3.95
2023-03-10T10:12:34.247Z,3.63
2023-03-10T10:15:14.624Z,1.73
2023-03-10T10:18:21.429Z,1.98
2023-03-10T10:21:11.790Z,4.78
2023-03-10T10:23:59.541Z,3.08
2023-03-10T10:26:41.003Z,2.70
2023-03-10T10:29:25.054Z,2.45
2023-03-10T10:32:26.131Z,2.45
2023-03-10T10:35:18.235Z,4.47
2023-03-10T10:38:26.249Z,2.50
2023-03-10T10:41:16.733Z,2.70
2023-03-10T10:43:48.692Z,2.53
2023-03-10T10:46:33.314Z,2.05
2023-03-10T10:49:40.754Z,3.53
2023-03-10T10:52:28.379Z,2.08
2023-03-10T10:55:32.077Z,0.95
2023-03-10T10:58:16.962Z,1.95
2023-03-10T11:00:59.420Z,1.33
2023-03-10T11:03:45.734Z,2.75
2023-03-10T11:06:27.759Z,1.60
2023-03-10T11:09:28.977Z,1.15
2023-03-10T11:12:30.625Z,2.83
2023-03-10T11:15:31.540Z,0.93
2023-03-10T11:18:36.030Z,0.95
2023-03-10T11:21:39.827Z,1.65
2023-03-10T11:24:18.970Z,0.65
2023-03-10T11:27:05.585Z,1.00
2023-03-10T11:29:58.037Z,1.30
2023-03-10T11:32:54.907Z,1.08
2023-03-10T11:35:39.649Z,1.33
2023-03-10T11:38:23.875Z,1.73
2023-03-10T11:41:31.093Z,0.55
2023-03-10T11:44:26.792Z,1.92
2023-03-10T11:47:29.293Z,0.98
2023-03-10T11:50:33.089Z,1.17
2023-03-10T11:53:32.130Z,2.55
2023-03-10T11:56:09.138Z,1.70
2023-03-10T11:58:52.600Z,0.75
2023-03-10T12:01:42.250Z,1.30
2023-03-10T12:04:35.711Z,1.17
2023-03-10T12:07:17.782Z,0.30
2023-03-10T12:10:00.904Z,0.30
2023-03-10T12:18:10.128Z,0.65
2023-03-10T12:21:27.116Z,0.35
2023-03-10T12:24:27.347Z,0.50
2023-03-10T12:27:22.671Z,1.17
2023-03-10T12:30:01.527Z,0.70
2023-03-10T12:32:53.533Z,0.73
2023-03-10T12:35:45.120Z,0.55
2023-03-10T12:38:46.978Z,0.32
2023-03-10T12:41:35.336Z,0.45
2023-03-10T12:44:45.757Z,1.52
2023-03-10T12:47:37.788Z,0.40
2023-03-10T12:50:18.111Z,0.40
2023-03-10T12:53:03.147Z,1.75
2023-03-10T12:55:37.573Z,0.52
2023-03-10T12:58:43.665Z,1.15
2023-03-10T13:01:28.230Z,1.30
2023-03-10T13:04:29.439Z,0.40
2023-03-10T13:07:22.131Z,0.63
2023-03-10T13:16:27.251Z,1.02
2023-03-10T13:22:01.749Z,0.55
2023-03-10T13:24:46.376Z,1.45
2023-03-10T13:27:42.939Z,0.93
2023-03-10T13:30:39.573Z,1.23
2023-03-10T13:33:42.993Z,1.15
2023-03-10T13:36:40.298Z,0.68
2023-03-10T13:39:16.532Z,3.33
2023-03-10T13:41:57.898Z,1.27
2023-03-10T13:44:41.527Z,3.03
2023-03-10T13:47:28.337Z,1.33
2023-03-10T13:50:03.405Z,2.72
2023-03-10T13:55:13.957Z,1.67
2023-03-10T13:58:00.966Z,3.80
2023-03-10T14:00:29.917Z,3.38
2023-03-10T14:02:59.878Z,5.30
2023-03-10T14:05:58.573Z,2.10
2023-03-10T14:11:24.205Z,0.50
2023-03-10T14:14:05.589Z,0.90
2023-03-10T14:16:53.394Z,0.75
2023-03-10T14:19:50.381Z,0.93
2023-03-10T14:25:25.287Z,2.55
2023-03-10T14:28:08.242Z,3.17
2023-03-10T14:30:54.488Z,4.57
2023-03-10T14:33:30.091Z,4.10
2023-03-10T14:36:09.416Z,1.83
2023-03-10T14:38:46.645Z,6.03
2023-03-10T14:41:39.150Z,5.03
2023-03-10T14:44:26.962Z,2.70
2023-03-10T14:48:00.960Z,1.25
2023-03-10T14:50:45.015Z,1.98
2023-03-10T14:53:28.762Z,5.32
2023-03-10T14:56:23.264Z,4.22
2023-03-10T14:59:02.492Z,3.70
2023-03-10T15:01:41.682Z,2.40
2023-03-10T15:04:22.818Z,3.13
2023-03-10T15:07:03.682Z,5.78
2023-03-10T15:10:08.881Z,4.97
2023-03-10T15:12:43.731Z,3.60
2023-03-10T15:15:29.696Z,5.57
2023-03-10T15:18:03.404Z,3.80
2023-03-10T15:20:39.303Z,7.47
2023-03-10T15:23:25.574Z,6.30
2023-03-10T15:25:55.125Z,5.47
2023-03-10T15:28:34.920Z,5.93
2023-03-10T15:31:09.961Z,6.35
2023-03-10T15:33:55.654Z,2.45
2023-03-10T15:36:34.408Z,6.60
2023-03-10T15:39:30.679Z,6.82
2023-03-10T15:42:08.241Z,9.13
2023-03-10T15:44:43.771Z,8.40
2023-03-10T15:47:24.649Z,10.35
2023-03-10T15:50:04.628Z,4.50
2023-03-10T15:52:35.961Z,4.75
2023-03-10T15:55:20.609Z,6.80
2023-03-10T15:58:02.707Z,4.82
2023-03-10T16:00:45.207Z,9.60
2023-03-10T16:03:41.848Z,8.32
2023-03-10T16:06:14.274Z,7.55
2023-03-10T16:08:53.111Z,5.03
2023-03-10T16:11:32.405Z,5.95
2023-03-10T16:14:14.886Z,6.50
2023-03-10T16:16:47.764Z,6.25
2023-03-10T16:19:32.733Z,6.97
2023-03-10T16:22:10.744Z,6.65
2023-03-10T16:24:50.708Z,10.48
2023-03-10T16:27:29.295Z,5.57
2023-03-10T16:30:18.444Z,7.25
2023-03-10T16:32:55.497Z,9.00
2023-03-10T16:35:36.564Z,6.03
2023-03-10T16:38:20.262Z,5.10
2023-03-10T16:41:01.252Z,9.10
2023-03-10T16:43:37.819Z,7.55
2023-03-10T16:46:33.933Z,3.65
2023-03-10T16:49:17.885Z,7.43
2023-03-10T16:51:51.694Z,3.20
2023-03-10T16:54:30.194Z,4.78
2023-03-10T16:57:01.856Z,5.90
2023-03-10T16:59:40.376Z,7.65
2023-03-10T17:02:25.590Z,4.30
2023-03-10T17:05:00.683Z,9.25
2023-03-10T17:07:43.488Z,6.80
2023-03-10T17:10:34.524Z,1.98
2023-03-10T17:13:10.872Z,6.07
2023-03-10T17:15:42.010Z,4.32
2023-03-10T17:18:25.264Z,3.60
2023-03-10T17:21:22.507Z,7.32
2023-03-10T17:24:26.049Z,7.90
2023-03-10T17:27:20.275Z,4.73
2023-03-10T17:30:30.451Z,8.07
2023-03-10T17:33:09.685Z,8.93
2023-03-10T17:35:45.252Z,9.63
2023-03-10T17:39:11.466Z,9.32
2023-03-10T17:53:34.133Z,7.38
2023-03-10T17:56:09.234Z,10.73
2023-03-10T17:59:11.067Z,7.47
2023-03-10T18:01:39.418Z,6.05
2023-03-10T18:04:17.998Z,12.05
2023-03-10T18:06:52.311Z,11.70
2023-03-10T18:09:34.727Z,12.02
2023-03-10T18:12:16.715Z,8.65
2023-03-10T18:15:14.433Z,9.82
2023-03-10T18:17:53.043Z,7.85
2023-03-10T18:20:24.137Z,11.07
2023-03-10T18:23:01.434Z,9.27
2023-03-10T18:25:29.609Z,10.98
2023-03-10T18:28:08.330Z,7.45
2023-03-10T18:30:57.369Z,12.57
2023-03-10T18:33:35.719Z,7.13
2023-03-10T18:36:18.310Z,7.65
2023-03-10T18:39:00.008Z,7.55
2023-03-10T18:41:33.905Z,10.30
2023-03-10T18:44:07.110Z,7.72
2023-03-10T18:46:48.201Z,9.77
2023-03-10T18:49:27.514Z,7.25
2023-03-10T18:51:58.245Z,8.95
2023-03-10T18:55:13.508Z,12.15
2023-03-10T18:58:07.305Z,6.88
2023-03-10T19:01:01.689Z,5.43
2023-03-10T19:03:37.741Z,8.55
2023-03-10T19:09:21.422Z,4.90
2023-03-10T19:12:08.213Z,8.63
2023-03-10T19:14:52.353Z,8.73
2023-03-10T19:17:29.035Z,2.30
2023-03-10T19:20:13.389Z,3.92
2023-03-10T19:25:34.737Z,4.85
2023-03-10T19:28:14.165Z,7.75
2023-03-10T19:30:58.767Z,6.35
2023-03-10T19:36:23.633Z,4.22
2023-03-10T19:38:59.692Z,2.40
2023-03-10T19:41:48.651Z,2.38
2023-03-10T19:44:22.567Z,2.30
2023-03-10T19:47:19.399Z,2.83
2023-03-10T19:49:48.573Z,1.45
2023-03-10T19:52:33.960Z,4.72
2023-03-10T19:55:37.562Z,3.40
2023-03-10T19:58:14.011Z,2.88
2023-03-10T20:00:49.958Z,3.10
2023-03-10T20:03:29.184Z,3.65
2023-03-10T20:06:13.028Z,2.78
2023-03-10T20:08:51.875Z,4.28
2023-03-10T20:11:19.839Z,3.65
2023-03-10T20:13:59.420Z,2.03
2023-03-10T20:16:36.075Z,2.58
2023-03-10T20:19:07.733Z,1.77
2023-03-10T20:21:45.962Z,2.67
2023-03-10T20:24:36.685Z,2.17
2023-03-10T20:27:15.956Z,2.85
2023-03-10T20:29:49.775Z,1.67
2023-03-10T20:32:36.059Z,2.42
2023-03-10T20:35:08.047Z,2.20
2023-03-10T20:37:51.887Z,2.65
2023-03-10T20:40:28.409Z,2.67
2023-03-10T20:43:06.185Z,1.63
2023-03-10T20:45:39.576Z,1.63
2023-03-10T20:48:32.332Z,1.95
2023-03-10T20:51:17.531Z,4.28
2023-03-10T20:54:01.929Z,2.33
2023-03-10T20:56:42.214Z,1.77
2023-03-10T21:02:16.625Z,2.77
2023-03-10T21:05:20.033Z,1.65
2023-03-10T21:07:58.850Z,1.75
2023-03-10T21:10:42.151Z,2.10
2023-03-10T21:13:32.748Z,2.15
2023-03-10T21:16:05.343Z,1.98
2023-03-10T21:18:40.658Z,3.42
2023-03-10T21:21:29.075Z,5.22
2023-03-10T21:24:08.719Z,1.48
2023-03-10T21:27:09.049Z,1.83
2023-03-10T21:29:42.873Z,1.70
2023-03-10T21:32:22.482Z,1.85
2023-03-10T21:35:06.021Z,2.42
2023-03-10T21:37:42.308Z,1.88
2023-03-10T21:40:16.164Z,1.45
2023-03-10T21:43:01.469Z,1.98
2023-03-10T21:45:40.862Z,1.30
2023-03-10T21:48:24.715Z,1.30
2023-03-10T21:51:22.947Z,1.67
2023-03-10T21:53:58.362Z,1.30
2023-03-10T21:56:29.009Z,1.30
2023-03-10T22:04:39.850Z,1.73
2023-03-10T22:07:17.384Z,2.95
2023-03-10T22:10:04.404Z,2.75
2023-03-10T22:12:52.354Z,1.63
2023-03-10T22:15:31.156Z,1.70
2023-03-10T22:18:06.615Z,1.50
2023-03-10T22:20:37.272Z,1.65
2023-03-10T22:23:10.029Z,2.55
2023-03-10T22:29:21.286Z,2.67
2023-03-10T22:32:07.614Z,2.60
2023-03-10T22:34:51.402Z,1.58
2023-03-10T22:37:33.132Z,1.80
2023-03-10T22:40:14.819Z,3.08
2023-03-10T22:43:03.689Z,2.00
2023-03-10T22:45:42.200Z,2.10
2023-03-10T22:48:15.468Z,1.65
2023-03-10T22:51:03.345Z,3.08
2023-03-10T22:53:38.853Z,1.63
2023-03-10T22:56:15.171Z,2.08
2023-03-10T22:58:49.007Z,2.05
2023-03-10T23:01:34.615Z,2.33
2023-03-10T23:04:18.017Z,1.83
2023-03-10T23:06:51.774Z,2.50
2023-03-10T23:09:25.284Z,2.50
2023-03-10T23:12:00.831Z,1.83
2023-03-10T23:14:33.510Z,3.20
2023-03-10T23:17:23.647Z,2.92
2023-03-10T23:19:57.189Z,1.80
2023-03-10T23:22:31.517Z,2.83
2023-03-10T23:25:20.898Z,1.90
2023-03-10T23:27:55.959Z,2.13
2023-03-10T23:30:34.383Z,2.70
2023-03-10T23:33:05.847Z,3.22
2023-03-10T23:35:59.244Z,3.83
2023-03-10T23:41:06.282Z,3.38
2023-03-10T23:43:45.107Z,2.40
2023-03-10T23:46:27.980Z,2.03
2023-03-10T23:49:01.775Z,2.05
2023-03-10T23:51:40.046Z,2.28
2023-03-10T23:54:25.792Z,2.30
2023-03-10T23:57:12.450Z,1.73
2023-03-10T23:59:49.015Z,3.53
